Погода Сауримона 2 недели

Южная Дунда, Ангола

18 - 30 июня
  • 18июня
    Сегодня
    +14°
    +31°
    Ясно и безоблачно
    ВремяПогодаТемператураВлажностьДавлениеВетер, м/сВероятность осадков
    01:00Практически безоблачно+16°C42 %674 мм2.9 м/с1 %
    04:00Ясно и безоблачно+14°C46 %674 мм2.6 м/с1 %
    07:00Ясно и безоблачно+15°C44 %676 мм3.3 м/с1 %
    10:00Ясно и безоблачно+25°C21 %677 мм3.3 м/с1 %
    13:00Ясно и безоблачно+30°C15 %676 мм1.0 м/с1 %
    16:00Ясно и безоблачно+30°C16 %675 мм0.8 м/с1 %
    19:00Ясно и безоблачно+22°C28 %674 мм1.9 м/с1 %
    22:00Ясно и безоблачно+19°C34 %675 мм2.6 м/с1 %
  • 19июня
    Среда
    +15°
    +32°
    Ясно и безоблачно
    ВремяПогодаТемператураВлажностьДавлениеВетер, м/сВероятность осадков
    01:00Ясно и безоблачно+18°C36 %674 мм2.6 м/с1 %
    04:00Ясно и безоблачно+16°C40 %674 мм2.8 м/с1 %
    07:00Ясно и безоблачно+16°C39 %675 мм3.4 м/с1 %
    10:00Ясно и безоблачно+25°C23 %677 мм3.6 м/с1 %
    13:00Ясно и безоблачно+31°C14 %676 мм1.4 м/с1 %
    16:00Ясно и безоблачно+31°C17 %675 мм0.7 м/с1 %
    19:00Ясно и безоблачно+23°C25 %674 мм2.6 м/с1 %
    22:00Ясно и безоблачно+21°C31 %675 мм3.2 м/с1 %
  • 20июня
    Четверг
    +16°
    +33°
    Ясно и безоблачно
    ВремяПогодаТемператураВлажностьДавлениеВетер, м/сВероятность осадков
    01:00Ясно и безоблачно+19°C34 %674 мм2.8 м/с1 %
    04:00Ясно и безоблачно+17°C36 %674 мм3.4 м/с1 %
    07:00Ясно и безоблачно+17°C38 %675 мм3.4 м/с1 %
    10:00Ясно и безоблачно+26°C23 %677 мм4.0 м/с1 %
    13:00Ясно и безоблачно+32°C14 %675 мм1.9 м/с1 %
    16:00Ясно и безоблачно+31°C16 %674 мм1.1 м/с1 %
    19:00Ясно и безоблачно+24°C24 %674 мм2.5 м/с1 %
    22:00Ясно и безоблачно+22°C28 %675 мм3.4 м/с1 %
  • 21июня
    Пятница
    +18°
    +33°
    Ясно и безоблачно
    ВремяПогодаТемператураВлажностьДавлениеВетер, м/сВероятность осадков
    01:00Ясно и безоблачно+19°C32 %675 мм3.1 м/с1 %
    04:00Ясно и безоблачно+18°C35 %674 мм3.5 м/с1 %
    07:00Ясно и безоблачно+18°C36 %676 мм3.9 м/с1 %
    10:00Ясно и безоблачно+27°C22 %677 мм4.4 м/с1 %
    13:00Ясно и безоблачно+32°C17 %676 мм2.5 м/с1 %
    16:00Ясно и безоблачно+32°C18 %675 мм2.1 м/с1 %
    19:00Ясно и безоблачно+26°C25 %674 мм3.7 м/с1 %
    22:00Ясно и безоблачно+22°C33 %675 мм3.2 м/с1 %
Мы используем cookies
Соглашаюсь